Wingett Run, Ohio
Current Conditions -  °F | °C
As of 12:53 PM on Tuesday 21 Oct 2014 (Local Time) from KPKB Reporting Station
Light Rain Light Rain  
Wind Chill: 11°   Ceiling: 900
Heat Index: 11°   Visibility: 10mi
Dew Point:   Wind: 12mph
Humidity: 89%   Direction: 300°WNW
Pressure: 29.96"   Gusts: 17mph
Location:  39.54°N, 81.24°W
Report Text: KPKB 211653Z 30010G15KT 10SM -RA BKN009 BKN015 OVC060 11/09 A2996 RMK AO2 RAB07 SLP143 P0002 T01110094
Loading
Personal Weather Stations






























Interactive Weather Map
Tropical Storm Tracking
New forecast layout! Learn more

10-Day Weather Forecast

Advertisements
Track Severe Weather on mobile